sensor_id;sensor_type;location;lat;lon;timestamp;P1;durP1;ratioP1;P2;durP2;ratioP2
46653;SDS011;38960;51.074;17.004;2022-09-09T00:00:44;10.13;;;3.70;;
46653;SDS011;38960;51.074;17.004;2022-09-09T00:03:17;4.43;;;4.03;;
46653;SDS011;38960;51.074;17.004;2022-09-09T00:08:19;4.13;;;3.60;;
46653;SDS011;38960;51.074;17.004;2022-09-09T00:10:47;5.10;;;3.83;;
46653;SDS011;38960;51.074;17.004;2022-09-09T00:13:22;6.65;;;3.92;;
46653;SDS011;38960;51.074;17.004;2022-09-09T00:16:12;6.43;;;4.28;;
46653;SDS011;38960;51.074;17.004;2022-09-09T00:21:43;5.22;;;3.45;;
46653;SDS011;38960;51.074;17.004;2022-09-09T00:27:08;5.93;;;3.25;;
46653;SDS011;38960;51.074;17.004;2022-09-09T00:29:45;4.03;;;3.53;;
46653;SDS011;38960;51.074;17.004;2022-09-09T00:32:16;6.95;;;3.08;;
46653;SDS011;38960;51.074;17.004;2022-09-09T00:34:54;6.30;;;3.45;;
46653;SDS011;38960;51.074;17.004;2022-09-09T00:37:22;4.78;;;3.72;;
46653;SDS011;38960;51.074;17.004;2022-09-09T00:39:48;3.58;;;3.25;;
46653;SDS011;38960;51.074;17.004;2022-09-09T00:42:23;6.85;;;3.83;;
46653;SDS011;38960;51.074;17.004;2022-09-09T00:55:46;12.07;;;3.72;;
46653;SDS011;38960;51.074;17.004;2022-09-09T00:58:14;11.23;;;4.40;;
46653;SDS011;38960;51.074;17.004;2022-09-09T01:00:44;6.95;;;4.05;;
46653;SDS011;38960;51.074;17.004;2022-09-09T01:16:56;7.50;;;4.55;;
46653;SDS011;38960;51.074;17.004;2022-09-09T01:20:10;8.30;;;4.38;;
46653;SDS011;38960;51.074;17.004;2022-09-09T01:25:56;8.90;;;3.83;;
46653;SDS011;38960;51.074;17.004;2022-09-09T01:28:32;7.97;;;3.60;;
46653;SDS011;38960;51.074;17.004;2022-09-09T01:31:05;7.75;;;3.40;;
46653;SDS011;38960;51.074;17.004;2022-09-09T01:33:38;10.05;;;3.67;;
46653;SDS011;38960;51.074;17.004;2022-09-09T01:38:48;8.30;;;3.45;;
46653;SDS011;38960;51.074;17.004;2022-09-09T01:41:14;8.63;;;3.67;;
46653;SDS011;38960;51.074;17.004;2022-09-09T01:43:48;3.33;;;3.03;;
46653;SDS011;38960;51.074;17.004;2022-09-09T01:46:14;6.10;;;3.13;;
46653;SDS011;38960;51.074;17.004;2022-09-09T01:48:41;5.43;;;3.30;;
46653;SDS011;38960;51.074;17.004;2022-09-09T01:51:09;5.85;;;3.53;;
46653;SDS011;38960;51.074;17.004;2022-09-09T01:53:36;6.05;;;3.20;;
46653;SDS011;38960;51.074;17.004;2022-09-09T02:03:42;4.70;;;3.15;;
46653;SDS011;38960;51.074;17.004;2022-09-09T02:06:33;4.32;;;3.30;;
46653;SDS011;38960;51.074;17.004;2022-09-09T02:09:15;7.50;;;3.38;;
46653;SDS011;38960;51.074;17.004;2022-09-09T02:11:44;3.70;;;2.95;;
46653;SDS011;38960;51.074;17.004;2022-09-09T02:14:27;4.38;;;3.25;;
46653;SDS011;38960;51.074;17.004;2022-09-09T02:16:57;4.97;;;3.60;;
46653;SDS011;38960;51.074;17.004;2022-09-09T02:19:42;4.40;;;3.40;;
46653;SDS011;38960;51.074;17.004;2022-09-09T02:22:25;3.45;;;3.15;;
46653;SDS011;38960;51.074;17.004;2022-09-09T02:24:52;5.13;;;3.00;;
46653;SDS011;38960;51.074;17.004;2022-09-09T02:27:23;3.53;;;2.63;;
46653;SDS011;38960;51.074;17.004;2022-09-09T02:29:50;3.47;;;2.80;;
46653;SDS011;38960;51.074;17.004;2022-09-09T02:34:58;4.10;;;2.90;;
46653;SDS011;38960;51.074;17.004;2022-09-09T02:37:32;3.20;;;2.90;;
46653;SDS011;38960;51.074;17.004;2022-09-09T02:40:02;3.10;;;2.85;;
46653;SDS011;38960;51.074;17.004;2022-09-09T02:42:30;5.50;;;3.13;;
46653;SDS011;38960;51.074;17.004;2022-09-09T02:44:57;4.63;;;3.13;;
46653;SDS011;38960;51.074;17.004;2022-09-09T02:47:29;4.43;;;3.53;;
46653;SDS011;38960;51.074;17.004;2022-09-09T02:55:46;2.97;;;2.75;;
46653;SDS011;38960;51.074;17.004;2022-09-09T02:58:16;3.47;;;2.95;;
46653;SDS011;38960;51.074;17.004;2022-09-09T03:00:46;3.35;;;3.03;;
46653;SDS011;38960;51.074;17.004;2022-09-09T03:03:13;4.05;;;3.58;;
46653;SDS011;38960;51.074;17.004;2022-09-09T03:05:41;5.38;;;3.03;;
46653;SDS011;38960;51.074;17.004;2022-09-09T03:08:07;4.07;;;3.33;;
46653;SDS011;38960;51.074;17.004;2022-09-09T03:10:33;3.42;;;3.13;;
46653;SDS011;38960;51.074;17.004;2022-09-09T03:12:59;3.67;;;3.38;;
46653;SDS011;38960;51.074;17.004;2022-09-09T03:15:28;4.68;;;3.65;;
46653;SDS011;38960;51.074;17.004;2022-09-09T03:17:57;5.03;;;3.40;;
46653;SDS011;38960;51.074;17.004;2022-09-09T03:20:24;7.20;;;3.83;;
46653;SDS011;38960;51.074;17.004;2022-09-09T03:22:52;4.03;;;3.63;;
46653;SDS011;38960;51.074;17.004;2022-09-09T03:25:18;3.67;;;3.38;;
46653;SDS011;38960;51.074;17.004;2022-09-09T03:27:45;12.88;;;3.67;;
46653;SDS011;38960;51.074;17.004;2022-09-09T03:30:11;7.13;;;3.45;;
46653;SDS011;38960;51.074;17.004;2022-09-09T03:32:37;5.25;;;3.25;;
46653;SDS011;38960;51.074;17.004;2022-09-09T03:35:03;8.77;;;3.25;;
46653;SDS011;38960;51.074;17.004;2022-09-09T03:37:29;5.85;;;3.10;;
46653;SDS011;38960;51.074;17.004;2022-09-09T03:39:55;8.05;;;3.30;;
46653;SDS011;38960;51.074;17.004;2022-09-09T03:42:22;3.88;;;3.53;;
46653;SDS011;38960;51.074;17.004;2022-09-09T03:44:50;4.55;;;3.50;;
46653;SDS011;38960;51.074;17.004;2022-09-09T03:47:19;3.92;;;3.15;;
46653;SDS011;38960;51.074;17.004;2022-09-09T03:49:47;10.10;;;3.72;;
46653;SDS011;38960;51.074;17.004;2022-09-09T03:52:13;5.28;;;4.30;;
46653;SDS011;38960;51.074;17.004;2022-09-09T03:54:40;5.80;;;3.40;;
46653;SDS011;38960;51.074;17.004;2022-09-09T03:57:08;4.47;;;3.58;;
46653;SDS011;38960;51.074;17.004;2022-09-09T03:59:34;8.38;;;4.85;;
46653;SDS011;38960;51.074;17.004;2022-09-09T04:02:00;7.90;;;3.42;;
46653;SDS011;38960;51.074;17.004;2022-09-09T04:04:26;3.58;;;3.28;;
46653;SDS011;38960;51.074;17.004;2022-09-09T04:06:52;8.13;;;3.10;;
46653;SDS011;38960;51.074;17.004;2022-09-09T04:09:18;5.45;;;3.17;;
46653;SDS011;38960;51.074;17.004;2022-09-09T04:11:44;6.85;;;3.40;;
46653;SDS011;38960;51.074;17.004;2022-09-09T04:14:11;5.85;;;3.65;;
46653;SDS011;38960;51.074;17.004;2022-09-09T04:16:38;5.75;;;3.45;;
46653;SDS011;38960;51.074;17.004;2022-09-09T04:19:03;8.13;;;3.75;;
46653;SDS011;38960;51.074;17.004;2022-09-09T04:21:30;7.20;;;3.85;;
46653;SDS011;38960;51.074;17.004;2022-09-09T04:23:56;5.20;;;3.30;;
46653;SDS011;38960;51.074;17.004;2022-09-09T04:26:21;6.25;;;3.35;;
46653;SDS011;38960;51.074;17.004;2022-09-09T04:28:47;4.63;;;3.50;;
46653;SDS011;38960;51.074;17.004;2022-09-09T04:31:18;5.78;;;3.38;;
46653;SDS011;38960;51.074;17.004;2022-09-09T04:33:46;5.97;;;3.65;;
46653;SDS011;38960;51.074;17.004;2022-09-09T04:36:13;4.55;;;3.55;;
46653;SDS011;38960;51.074;17.004;2022-09-09T04:38:39;4.78;;;3.78;;
46653;SDS011;38960;51.074;17.004;2022-09-09T04:41:05;6.30;;;3.53;;
46653;SDS011;38960;51.074;17.004;2022-09-09T04:43:32;6.10;;;3.80;;
46653;SDS011;38960;51.074;17.004;2022-09-09T04:46:01;12.35;;;4.35;;
46653;SDS011;38960;51.074;17.004;2022-09-09T04:48:27;9.13;;;4.20;;
46653;SDS011;38960;51.074;17.004;2022-09-09T04:50:53;7.03;;;4.25;;
46653;SDS011;38960;51.074;17.004;2022-09-09T04:53:23;5.13;;;3.22;;
46653;SDS011;38960;51.074;17.004;2022-09-09T04:55:48;6.90;;;3.63;;
46653;SDS011;38960;51.074;17.004;2022-09-09T04:58:14;5.22;;;3.65;;
46653;SDS011;38960;51.074;17.004;2022-09-09T05:00:40;9.15;;;4.10;;
46653;SDS011;38960;51.074;17.004;2022-09-09T05:03:07;6.00;;;3.38;;
46653;SDS011;38960;51.074;17.004;2022-09-09T05:05:35;6.47;;;3.35;;
46653;SDS011;38960;51.074;17.004;2022-09-09T05:08:04;3.78;;;3.40;;
46653;SDS011;38960;51.074;17.004;2022-09-09T05:10:31;7.80;;;3.60;;
46653;SDS011;38960;51.074;17.004;2022-09-09T05:12:58;4.93;;;3.42;;
46653;SDS011;38960;51.074;17.004;2022-09-09T05:15:25;5.10;;;3.35;;
46653;SDS011;38960;51.074;17.004;2022-09-09T05:17:51;5.88;;;3.22;;
46653;SDS011;38960;51.074;17.004;2022-09-09T05:20:19;4.38;;;3.10;;
46653;SDS011;38960;51.074;17.004;2022-09-09T05:22:45;4.10;;;2.90;;
46653;SDS011;38960;51.074;17.004;2022-09-09T05:25:11;3.20;;;2.80;;
46653;SDS011;38960;51.074;17.004;2022-09-09T05:27:36;5.22;;;3.17;;
46653;SDS011;38960;51.074;17.004;2022-09-09T05:30:03;7.60;;;3.67;;
46653;SDS011;38960;51.074;17.004;2022-09-09T05:32:29;4.78;;;2.88;;
46653;SDS011;38960;51.074;17.004;2022-09-09T05:34:58;6.80;;;3.30;;
46653;SDS011;38960;51.074;17.004;2022-09-09T05:37:24;3.78;;;3.00;;
46653;SDS011;38960;51.074;17.004;2022-09-09T05:39:51;3.53;;;2.78;;
46653;SDS011;38960;51.074;17.004;2022-09-09T05:42:16;4.40;;;2.97;;
46653;SDS011;38960;51.074;17.004;2022-09-09T05:44:43;6.88;;;3.03;;
46653;SDS011;38960;51.074;17.004;2022-09-09T05:47:10;9.70;;;2.92;;
46653;SDS011;38960;51.074;17.004;2022-09-09T05:49:36;5.68;;;2.90;;
46653;SDS011;38960;51.074;17.004;2022-09-09T05:52:02;5.90;;;2.90;;
46653;SDS011;38960;51.074;17.004;2022-09-09T05:54:29;5.05;;;2.60;;
46653;SDS011;38960;51.074;17.004;2022-09-09T05:56:55;3.83;;;2.40;;
46653;SDS011;38960;51.074;17.004;2022-09-09T05:59:20;10.48;;;4.32;;
46653;SDS011;38960;51.074;17.004;2022-09-09T06:01:49;7.05;;;2.88;;
46653;SDS011;38960;51.074;17.004;2022-09-09T06:04:35;5.78;;;2.28;;
46653;SDS011;38960;51.074;17.004;2022-09-09T06:07:01;15.77;;;2.83;;
46653;SDS011;38960;51.074;17.004;2022-09-09T06:09:28;7.20;;;2.88;;
46653;SDS011;38960;51.074;17.004;2022-09-09T06:11:55;3.88;;;2.42;;
46653;SDS011;38960;51.074;17.004;2022-09-09T06:14:23;6.15;;;3.00;;
46653;SDS011;38960;51.074;17.004;2022-09-09T06:16:53;6.77;;;2.83;;
46653;SDS011;38960;51.074;17.004;2022-09-09T06:19:25;9.20;;;3.50;;
46653;SDS011;38960;51.074;17.004;2022-09-09T06:21:53;6.95;;;2.58;;
46653;SDS011;38960;51.074;17.004;2022-09-09T06:24:20;6.07;;;2.15;;
46653;SDS011;38960;51.074;17.004;2022-09-09T06:26:45;5.50;;;2.63;;
46653;SDS011;38960;51.074;17.004;2022-09-09T06:29:15;6.70;;;2.97;;
46653;SDS011;38960;51.074;17.004;2022-09-09T06:31:41;6.15;;;2.90;;
46653;SDS011;38960;51.074;17.004;2022-09-09T06:34:13;7.10;;;3.10;;
46653;SDS011;38960;51.074;17.004;2022-09-09T06:36:44;12.90;;;3.45;;
46653;SDS011;38960;51.074;17.004;2022-09-09T06:39:11;5.25;;;2.60;;
46653;SDS011;38960;51.074;17.004;2022-09-09T06:41:38;12.40;;;2.63;;
46653;SDS011;38960;51.074;17.004;2022-09-09T06:44:07;7.25;;;2.63;;
46653;SDS011;38960;51.074;17.004;2022-09-09T06:46:39;2.40;;;1.60;;
46653;SDS011;38960;51.074;17.004;2022-09-09T06:49:05;8.63;;;2.28;;
46653;SDS011;38960;51.074;17.004;2022-09-09T06:51:31;5.05;;;2.13;;
46653;SDS011;38960;51.074;17.004;2022-09-09T06:53:59;8.18;;;2.25;;
46653;SDS011;38960;51.074;17.004;2022-09-09T06:56:40;4.65;;;2.15;;
46653;SDS011;38960;51.074;17.004;2022-09-09T06:59:12;9.45;;;2.30;;
46653;SDS011;38960;51.074;17.004;2022-09-09T07:01:39;3.78;;;1.83;;
46653;SDS011;38960;51.074;17.004;2022-09-09T07:04:09;6.40;;;2.17;;
46653;SDS011;38960;51.074;17.004;2022-09-09T07:06:39;6.32;;;1.92;;
46653;SDS011;38960;51.074;17.004;2022-09-09T07:09:10;4.90;;;2.33;;
46653;SDS011;38960;51.074;17.004;2022-09-09T07:11:40;5.75;;;2.58;;
46653;SDS011;38960;51.074;17.004;2022-09-09T07:14:07;6.93;;;2.30;;
46653;SDS011;38960;51.074;17.004;2022-09-09T07:16:33;8.60;;;2.20;;
46653;SDS011;38960;51.074;17.004;2022-09-09T07:19:02;8.82;;;2.03;;
46653;SDS011;38960;51.074;17.004;2022-09-09T07:21:29;4.95;;;1.60;;
46653;SDS011;38960;51.074;17.004;2022-09-09T07:23:55;6.93;;;2.08;;
46653;SDS011;38960;51.074;17.004;2022-09-09T07:26:29;9.13;;;1.80;;
46653;SDS011;38960;51.074;17.004;2022-09-09T07:28:57;7.97;;;1.55;;
46653;SDS011;38960;51.074;17.004;2022-09-09T07:31:27;3.55;;;1.40;;
46653;SDS011;38960;51.074;17.004;2022-09-09T07:33:59;6.50;;;1.85;;
46653;SDS011;38960;51.074;17.004;2022-09-09T07:36:27;7.35;;;1.60;;
46653;SDS011;38960;51.074;17.004;2022-09-09T07:38:58;5.30;;;1.52;;
46653;SDS011;38960;51.074;17.004;2022-09-09T07:44:07;8.85;;;1.50;;
46653;SDS011;38960;51.074;17.004;2022-09-09T07:46:36;3.47;;;1.42;;
46653;SDS011;38960;51.074;17.004;2022-09-09T07:49:04;7.88;;;1.88;;
46653;SDS011;38960;51.074;17.004;2022-09-09T07:51:33;3.05;;;1.48;;
46653;SDS011;38960;51.074;17.004;2022-09-09T07:54:02;5.07;;;1.67;;
46653;SDS011;38960;51.074;17.004;2022-09-09T07:56:30;3.80;;;1.50;;
46653;SDS011;38960;51.074;17.004;2022-09-09T07:58:57;4.22;;;1.60;;
46653;SDS011;38960;51.074;17.004;2022-09-09T08:01:27;7.80;;;1.90;;
46653;SDS011;38960;51.074;17.004;2022-09-09T08:03:57;3.28;;;1.30;;
46653;SDS011;38960;51.074;17.004;2022-09-09T08:06:25;2.33;;;1.20;;
46653;SDS011;38960;51.074;17.004;2022-09-09T08:08:52;1.17;;;0.98;;
46653;SDS011;38960;51.074;17.004;2022-09-09T08:11:18;3.58;;;1.30;;
46653;SDS011;38960;51.074;17.004;2022-09-09T08:13:44;3.67;;;1.52;;
46653;SDS011;38960;51.074;17.004;2022-09-09T08:16:11;12.10;;;3.22;;
46653;SDS011;38960;51.074;17.004;2022-09-09T08:18:39;11.77;;;1.88;;
46653;SDS011;38960;51.074;17.004;2022-09-09T08:21:09;2.70;;;1.05;;
46653;SDS011;38960;51.074;17.004;2022-09-09T08:23:42;7.28;;;1.58;;
46653;SDS011;38960;51.074;17.004;2022-09-09T08:26:10;3.60;;;1.00;;
46653;SDS011;38960;51.074;17.004;2022-09-09T08:28:36;3.80;;;1.02;;
46653;SDS011;38960;51.074;17.004;2022-09-09T08:31:06;4.78;;;1.65;;
46653;SDS011;38960;51.074;17.004;2022-09-09T08:33:32;3.83;;;1.20;;
46653;SDS011;38960;51.074;17.004;2022-09-09T08:35:59;6.85;;;1.75;;
46653;SDS011;38960;51.074;17.004;2022-09-09T08:38:24;3.42;;;1.15;;
46653;SDS011;38960;51.074;17.004;2022-09-09T08:40:50;3.88;;;1.40;;
46653;SDS011;38960;51.074;17.004;2022-09-09T08:43:19;1.47;;;0.90;;
46653;SDS011;38960;51.074;17.004;2022-09-09T08:45:50;5.03;;;1.60;;
46653;SDS011;38960;51.074;17.004;2022-09-09T08:51:04;8.38;;;2.38;;
46653;SDS011;38960;51.074;17.004;2022-09-09T08:53:44;1.65;;;1.13;;
46653;SDS011;38960;51.074;17.004;2022-09-09T08:56:14;4.28;;;1.38;;
46653;SDS011;38960;51.074;17.004;2022-09-09T08:58:51;6.93;;;1.45;;
46653;SDS011;38960;51.074;17.004;2022-09-09T09:09:31;3.20;;;1.77;;
46653;SDS011;38960;51.074;17.004;2022-09-09T09:12:05;6.30;;;1.52;;
46653;SDS011;38960;51.074;17.004;2022-09-09T09:14:38;4.22;;;1.48;;
46653;SDS011;38960;51.074;17.004;2022-09-09T09:17:10;4.53;;;1.50;;
46653;SDS011;38960;51.074;17.004;2022-09-09T09:19:39;3.33;;;1.00;;
46653;SDS011;38960;51.074;17.004;2022-09-09T09:25:05;6.18;;;1.38;;
46653;SDS011;38960;51.074;17.004;2022-09-09T09:35:56;1.67;;;1.02;;
46653;SDS011;38960;51.074;17.004;2022-09-09T09:38:26;1.70;;;1.10;;
46653;SDS011;38960;51.074;17.004;2022-09-09T09:40:57;4.80;;;0.90;;
46653;SDS011;38960;51.074;17.004;2022-09-09T09:43:26;1.67;;;1.05;;
46653;SDS011;38960;51.074;17.004;2022-09-09T09:45:54;3.83;;;1.15;;
46653;SDS011;38960;51.074;17.004;2022-09-09T09:48:20;6.70;;;1.55;;
46653;SDS011;38960;51.074;17.004;2022-09-09T09:50:56;3.03;;;1.00;;
46653;SDS011;38960;51.074;17.004;2022-09-09T09:53:25;3.40;;;1.23;;
46653;SDS011;38960;51.074;17.004;2022-09-09T09:58:31;3.50;;;1.30;;
46653;SDS011;38960;51.074;17.004;2022-09-09T10:01:00;3.83;;;1.40;;
46653;SDS011;38960;51.074;17.004;2022-09-09T10:03:31;1.80;;;1.20;;
46653;SDS011;38960;51.074;17.004;2022-09-09T10:06:04;2.80;;;1.20;;
46653;SDS011;38960;51.074;17.004;2022-09-09T10:08:32;5.90;;;1.77;;
46653;SDS011;38960;51.074;17.004;2022-09-09T10:16:13;6.03;;;1.40;;
46653;SDS011;38960;51.074;17.004;2022-09-09T10:21:47;1.27;;;0.90;;
46653;SDS011;38960;51.074;17.004;2022-09-09T10:24:39;2.10;;;1.00;;
46653;SDS011;38960;51.074;17.004;2022-09-09T10:54:46;4.40;;;1.45;;
46653;SDS011;38960;51.074;17.004;2022-09-09T10:57:18;3.97;;;1.77;;
46653;SDS011;38960;51.074;17.004;2022-09-09T10:59:58;4.47;;;1.10;;
46653;SDS011;38960;51.074;17.004;2022-09-09T11:02:29;3.63;;;1.20;;
46653;SDS011;38960;51.074;17.004;2022-09-09T11:07:45;4.30;;;1.70;;
46653;SDS011;38960;51.074;17.004;2022-09-09T11:10:36;4.93;;;1.80;;
46653;SDS011;38960;51.074;17.004;2022-09-09T11:13:09;1.70;;;1.17;;
46653;SDS011;38960;51.074;17.004;2022-09-09T11:15:45;2.28;;;1.25;;
46653;SDS011;38960;51.074;17.004;2022-09-09T11:18:20;5.20;;;1.30;;
46653;SDS011;38960;51.074;17.004;2022-09-09T11:20:49;4.85;;;1.30;;
46653;SDS011;38960;51.074;17.004;2022-09-09T11:23:29;1.58;;;1.20;;
46653;SDS011;38960;51.074;17.004;2022-09-09T11:26:08;2.80;;;1.25;;
46653;SDS011;38960;51.074;17.004;2022-09-09T11:28:46;2.45;;;1.13;;
46653;SDS011;38960;51.074;17.004;2022-09-09T11:40:23;2.00;;;1.20;;
46653;SDS011;38960;51.074;17.004;2022-09-09T11:43:12;3.38;;;1.17;;
46653;SDS011;38960;51.074;17.004;2022-09-09T11:45:51;5.78;;;1.80;;
46653;SDS011;38960;51.074;17.004;2022-09-09T11:48:26;5.97;;;1.42;;
46653;SDS011;38960;51.074;17.004;2022-09-09T11:50:58;5.60;;;1.20;;
46653;SDS011;38960;51.074;17.004;2022-09-09T11:53:25;2.97;;;1.13;;
46653;SDS011;38960;51.074;17.004;2022-09-09T11:56:01;1.42;;;1.00;;
46653;SDS011;38960;51.074;17.004;2022-09-09T11:58:42;3.25;;;1.55;;
46653;SDS011;38960;51.074;17.004;2022-09-09T12:01:14;3.92;;;1.02;;
46653;SDS011;38960;51.074;17.004;2022-09-09T12:04:02;3.47;;;1.30;;
46653;SDS011;38960;51.074;17.004;2022-09-09T12:06:41;2.85;;;1.17;;
46653;SDS011;38960;51.074;17.004;2022-09-09T12:09:25;1.98;;;1.00;;
46653;SDS011;38960;51.074;17.004;2022-09-09T12:12:04;3.17;;;1.20;;
46653;SDS011;38960;51.074;17.004;2022-09-09T12:20:13;2.70;;;1.42;;
46653;SDS011;38960;51.074;17.004;2022-09-09T12:28:18;2.28;;;1.23;;
46653;SDS011;38960;51.074;17.004;2022-09-09T12:33:17;2.42;;;1.45;;
46653;SDS011;38960;51.074;17.004;2022-09-09T12:35:44;3.75;;;1.25;;
46653;SDS011;38960;51.074;17.004;2022-09-09T12:38:17;4.47;;;1.38;;
46653;SDS011;38960;51.074;17.004;2022-09-09T12:40:54;4.18;;;1.05;;
46653;SDS011;38960;51.074;17.004;2022-09-09T12:43:21;2.28;;;1.20;;
46653;SDS011;38960;51.074;17.004;2022-09-09T12:45:48;2.42;;;1.13;;
46653;SDS011;38960;51.074;17.004;2022-09-09T12:48:15;6.90;;;1.75;;
46653;SDS011;38960;51.074;17.004;2022-09-09T12:50:50;7.18;;;2.05;;
46653;SDS011;38960;51.074;17.004;2022-09-09T12:53:33;3.60;;;1.20;;
46653;SDS011;38960;51.074;17.004;2022-09-09T12:56:01;12.25;;;1.75;;
46653;SDS011;38960;51.074;17.004;2022-09-09T12:58:29;4.00;;;1.13;;
46653;SDS011;38960;51.074;17.004;2022-09-09T13:00:58;3.58;;;1.40;;
46653;SDS011;38960;51.074;17.004;2022-09-09T13:03:25;2.45;;;1.10;;
46653;SDS011;38960;51.074;17.004;2022-09-09T13:05:51;1.60;;;1.00;;
46653;SDS011;38960;51.074;17.004;2022-09-09T13:08:18;2.38;;;1.25;;
46653;SDS011;38960;51.074;17.004;2022-09-09T13:11:01;2.88;;;1.30;;
46653;SDS011;38960;51.074;17.004;2022-09-09T13:13:29;2.55;;;1.10;;
46653;SDS011;38960;51.074;17.004;2022-09-09T13:16:06;2.35;;;0.95;;
46653;SDS011;38960;51.074;17.004;2022-09-09T13:18:45;2.92;;;1.50;;
46653;SDS011;38960;51.074;17.004;2022-09-09T13:21:11;2.97;;;1.40;;
46653;SDS011;38960;51.074;17.004;2022-09-09T13:23:37;2.30;;;1.17;;
46653;SDS011;38960;51.074;17.004;2022-09-09T13:26:04;1.20;;;1.10;;
46653;SDS011;38960;51.074;17.004;2022-09-09T13:28:31;3.65;;;1.23;;
46653;SDS011;38960;51.074;17.004;2022-09-09T13:30:58;2.67;;;1.27;;
46653;SDS011;38960;51.074;17.004;2022-09-09T13:33:29;2.13;;;1.10;;
46653;SDS011;38960;51.074;17.004;2022-09-09T13:35:58;1.38;;;1.00;;
46653;SDS011;38960;51.074;17.004;2022-09-09T13:38:25;3.55;;;1.38;;
46653;SDS011;38960;51.074;17.004;2022-09-09T13:43:27;4.10;;;1.20;;
46653;SDS011;38960;51.074;17.004;2022-09-09T13:45:57;3.38;;;1.20;;
46653;SDS011;38960;51.074;17.004;2022-09-09T13:48:24;3.35;;;1.38;;
46653;SDS011;38960;51.074;17.004;2022-09-09T13:51:01;2.38;;;1.48;;
46653;SDS011;38960;51.074;17.004;2022-09-09T13:53:29;3.60;;;1.40;;
46653;SDS011;38960;51.074;17.004;2022-09-09T13:55:55;3.20;;;1.40;;
46653;SDS011;38960;51.074;17.004;2022-09-09T13:58:22;3.03;;;1.10;;
46653;SDS011;38960;51.074;17.004;2022-09-09T14:00:48;1.98;;;1.00;;
46653;SDS011;38960;51.074;17.004;2022-09-09T14:03:15;2.58;;;1.30;;
46653;SDS011;38960;51.074;17.004;2022-09-09T14:05:40;3.72;;;1.30;;
46653;SDS011;38960;51.074;17.004;2022-09-09T14:08:07;5.10;;;1.30;;
46653;SDS011;38960;51.074;17.004;2022-09-09T14:10:40;5.75;;;1.55;;
46653;SDS011;38960;51.074;17.004;2022-09-09T14:13:05;2.85;;;1.50;;
46653;SDS011;38960;51.074;17.004;2022-09-09T14:15:31;2.95;;;1.27;;
46653;SDS011;38960;51.074;17.004;2022-09-09T14:17:56;1.88;;;1.20;;
46653;SDS011;38960;51.074;17.004;2022-09-09T14:20:23;4.28;;;1.25;;
46653;SDS011;38960;51.074;17.004;2022-09-09T14:22:49;3.70;;;2.05;;
46653;SDS011;38960;51.074;17.004;2022-09-09T14:25:14;1.73;;;1.00;;
46653;SDS011;38960;51.074;17.004;2022-09-09T14:27:40;1.83;;;0.98;;
46653;SDS011;38960;51.074;17.004;2022-09-09T14:30:07;3.72;;;1.10;;
46653;SDS011;38960;51.074;17.004;2022-09-09T14:32:33;1.90;;;1.15;;
46653;SDS011;38960;51.074;17.004;2022-09-09T14:34:59;2.78;;;1.10;;
46653;SDS011;38960;51.074;17.004;2022-09-09T14:37:24;2.92;;;1.27;;
46653;SDS011;38960;51.074;17.004;2022-09-09T14:39:50;1.77;;;1.10;;
46653;SDS011;38960;51.074;17.004;2022-09-09T14:42:16;3.70;;;1.20;;
46653;SDS011;38960;51.074;17.004;2022-09-09T14:44:42;1.67;;;1.15;;
46653;SDS011;38960;51.074;17.004;2022-09-09T14:47:07;2.40;;;1.30;;
46653;SDS011;38960;51.074;17.004;2022-09-09T14:49:36;1.83;;;1.13;;
46653;SDS011;38960;51.074;17.004;2022-09-09T14:52:02;2.28;;;1.30;;
46653;SDS011;38960;51.074;17.004;2022-09-09T14:54:28;2.05;;;1.33;;
46653;SDS011;38960;51.074;17.004;2022-09-09T14:56:55;2.05;;;1.08;;
46653;SDS011;38960;51.074;17.004;2022-09-09T14:59:22;3.80;;;1.30;;
46653;SDS011;38960;51.074;17.004;2022-09-09T15:01:47;3.05;;;1.40;;
46653;SDS011;38960;51.074;17.004;2022-09-09T15:04:13;1.73;;;1.20;;
46653;SDS011;38960;51.074;17.004;2022-09-09T15:06:40;2.08;;;1.20;;
46653;SDS011;38960;51.074;17.004;2022-09-09T15:09:07;5.30;;;1.60;;
46653;SDS011;38960;51.074;17.004;2022-09-09T15:11:34;2.47;;;1.23;;
46653;SDS011;38960;51.074;17.004;2022-09-09T15:14:04;3.00;;;1.10;;
46653;SDS011;38960;51.074;17.004;2022-09-09T15:16:30;3.10;;;1.20;;
46653;SDS011;38960;51.074;17.004;2022-09-09T15:18:57;3.67;;;1.65;;
46653;SDS011;38960;51.074;17.004;2022-09-09T15:21:25;4.97;;;1.63;;
46653;SDS011;38960;51.074;17.004;2022-09-09T15:23:52;3.95;;;1.20;;
46653;SDS011;38960;51.074;17.004;2022-09-09T15:26:18;2.67;;;1.33;;
46653;SDS011;38960;51.074;17.004;2022-09-09T15:28:44;4.60;;;1.20;;
46653;SDS011;38960;51.074;17.004;2022-09-09T15:31:13;1.85;;;1.10;;
46653;SDS011;38960;51.074;17.004;2022-09-09T15:33:46;4.63;;;1.60;;
46653;SDS011;38960;51.074;17.004;2022-09-09T15:36:19;3.88;;;1.45;;
46653;SDS011;38960;51.074;17.004;2022-09-09T15:38:45;1.92;;;1.20;;
46653;SDS011;38960;51.074;17.004;2022-09-09T15:41:14;3.55;;;1.45;;
46653;SDS011;38960;51.074;17.004;2022-09-09T15:43:44;3.80;;;1.55;;
46653;SDS011;38960;51.074;17.004;2022-09-09T15:48:46;2.92;;;1.40;;
46653;SDS011;38960;51.074;17.004;2022-09-09T15:51:18;3.40;;;1.45;;
46653;SDS011;38960;51.074;17.004;2022-09-09T15:53:44;4.50;;;1.65;;
46653;SDS011;38960;51.074;17.004;2022-09-09T15:56:16;6.25;;;1.52;;
46653;SDS011;38960;51.074;17.004;2022-09-09T15:58:42;2.60;;;1.30;;
46653;SDS011;38960;51.074;17.004;2022-09-09T16:03:46;2.30;;;1.20;;
46653;SDS011;38960;51.074;17.004;2022-09-09T16:06:16;1.80;;;1.15;;
46653;SDS011;38960;51.074;17.004;2022-09-09T16:11:27;1.77;;;1.40;;
46653;SDS011;38960;51.074;17.004;2022-09-09T16:13:55;5.22;;;2.65;;
46653;SDS011;38960;51.074;17.004;2022-09-09T16:19:19;2.90;;;1.60;;
46653;SDS011;38960;51.074;17.004;2022-09-09T16:21:50;4.30;;;1.90;;
46653;SDS011;38960;51.074;17.004;2022-09-09T16:24:24;3.15;;;2.20;;
46653;SDS011;38960;51.074;17.004;2022-09-09T16:26:53;3.25;;;1.75;;
46653;SDS011;38960;51.074;17.004;2022-09-09T16:29:22;9.10;;;2.10;;
46653;SDS011;38960;51.074;17.004;2022-09-09T16:31:49;4.95;;;2.13;;
46653;SDS011;38960;51.074;17.004;2022-09-09T16:34:15;4.55;;;2.50;;
46653;SDS011;38960;51.074;17.004;2022-09-09T16:36:42;5.15;;;2.75;;
46653;SDS011;38960;51.074;17.004;2022-09-09T16:39:12;6.60;;;1.73;;
46653;SDS011;38960;51.074;17.004;2022-09-09T16:41:40;4.72;;;1.77;;
46653;SDS011;38960;51.074;17.004;2022-09-09T16:44:07;3.97;;;1.70;;
46653;SDS011;38960;51.074;17.004;2022-09-09T16:46:34;5.35;;;1.80;;
46653;SDS011;38960;51.074;17.004;2022-09-09T16:49:02;5.20;;;1.58;;
46653;SDS011;38960;51.074;17.004;2022-09-09T16:51:32;3.67;;;1.50;;
46653;SDS011;38960;51.074;17.004;2022-09-09T16:54:01;5.20;;;1.52;;
46653;SDS011;38960;51.074;17.004;2022-09-09T16:56:34;2.40;;;1.40;;
46653;SDS011;38960;51.074;17.004;2022-09-09T16:59:04;4.60;;;1.40;;
46653;SDS011;38960;51.074;17.004;2022-09-09T17:01:32;5.55;;;1.58;;
46653;SDS011;38960;51.074;17.004;2022-09-09T17:04:00;2.67;;;1.30;;
46653;SDS011;38960;51.074;17.004;2022-09-09T17:06:31;2.80;;;1.55;;
46653;SDS011;38960;51.074;17.004;2022-09-09T17:09:00;5.18;;;2.03;;
46653;SDS011;38960;51.074;17.004;2022-09-09T17:11:28;5.68;;;1.60;;
46653;SDS011;38960;51.074;17.004;2022-09-09T17:13:54;5.13;;;1.65;;
46653;SDS011;38960;51.074;17.004;2022-09-09T17:16:22;2.05;;;1.27;;
46653;SDS011;38960;51.074;17.004;2022-09-09T17:18:49;3.67;;;1.33;;
46653;SDS011;38960;51.074;17.004;2022-09-09T17:21:17;4.20;;;1.35;;
46653;SDS011;38960;51.074;17.004;2022-09-09T17:23:44;7.57;;;2.30;;